Time;durP1;ratioP1;P1;durP2;ratioP2;P2;SDS_P1;SDS_P2;PMS_P1;PMS_P2;Temp;Humidity;BMP_temperature;BMP_pressure;BME280_temperature;BME280_humidity;BME280_pressure;Samples;Min_cycle;Max_cycle;Signal;HPM_P1;HPM_P2
2024/03/14 00:00:16;;;;;;;5.55;4.15;;;14.60;80.40;;;;;;4972142;28;20511;-32
2024/03/14 00:02:45;;;;;;;4.93;3.97;;;14.50;80.40;;;;;;4972383;28;20069;-32
2024/03/14 00:05:11;;;;;;;5.85;4.13;;;14.50;80.40;;;;;;4974262;28;20031;-32
2024/03/14 00:07:37;;;;;;;5.20;4.03;;;14.50;80.40;;;;;;4979411;28;20027;-33
2024/03/14 00:10:04;;;;;;;5.15;4.30;;;14.50;80.50;;;;;;4969421;28;20082;-32
2024/03/14 00:12:30;;;;;;;5.07;4.38;;;14.50;80.40;;;;;;4976991;28;20027;-33
2024/03/14 00:14:56;;;;;;;5.45;4.10;;;14.50;80.40;;;;;;4971408;28;20042;-33
2024/03/14 00:17:22;;;;;;;4.75;3.75;;;14.50;80.40;;;;;;4978000;28;20598;-35
2024/03/14 00:19:48;;;;;;;5.28;4.20;;;14.50;80.40;;;;;;4976920;28;20025;-33
2024/03/14 00:22:14;;;;;;;5.43;4.30;;;14.50;80.40;;;;;;4974744;28;20050;-32
2024/03/14 00:24:41;;;;;;;4.82;4.07;;;14.50;80.50;;;;;;4973175;28;20023;-33
2024/03/14 00:27:07;;;;;;;4.85;3.90;;;14.50;80.50;;;;;;4969047;28;20073;-32
2024/03/14 00:29:34;;;;;;;5.28;4.20;;;14.50;80.40;;;;;;4974730;28;20070;-32
2024/03/14 00:32:02;;;;;;;5.60;4.10;;;14.40;80.40;;;;;;4959763;28;20034;-33
2024/03/14 00:34:28;;;;;;;6.25;3.50;;;14.40;80.40;;;;;;4975021;28;20026;-32
2024/03/14 00:36:55;;;;;;;4.65;3.80;;;14.40;80.40;;;;;;4974830;28;20030;-33
2024/03/14 00:39:21;;;;;;;4.85;3.72;;;14.40;80.40;;;;;;4973206;28;20078;-33
2024/03/14 00:41:49;;;;;;;5.22;4.00;;;14.40;80.40;;;;;;4949357;28;20119;-33
2024/03/14 00:44:15;;;;;;;5.15;4.07;;;14.40;80.40;;;;;;4972986;28;20031;-32
2024/03/14 00:46:40;;;;;;;4.97;3.97;;;14.40;80.40;;;;;;4970372;28;20077;-33
2024/03/14 00:49:07;;;;;;;4.70;3.75;;;14.40;80.40;;;;;;4975178;28;20065;-33
2024/03/14 00:51:33;;;;;;;4.90;3.88;;;14.40;80.40;;;;;;4966958;28;20027;-33
2024/03/14 00:54:01;;;;;;;4.90;4.03;;;14.30;80.40;;;;;;4968898;28;20030;-33
2024/03/14 00:56:28;;;;;;;4.82;3.80;;;14.30;80.40;;;;;;4976036;28;20046;-33
2024/03/14 00:58:56;;;;;;;5.13;4.03;;;14.30;80.40;;;;;;4972943;28;20388;-32
2024/03/14 01:01:24;;;;;;;5.15;3.85;;;14.30;80.40;;;;;;4972915;28;20036;-32
2024/03/14 01:03:52;;;;;;;5.10;3.88;;;14.30;80.40;;;;;;4970893;28;20082;-32
2024/03/14 01:06:19;;;;;;;5.28;3.97;;;14.30;80.40;;;;;;4973470;28;20027;-32
2024/03/14 01:08:44;;;;;;;5.03;3.92;;;14.30;80.40;;;;;;4971524;28;20471;-32
2024/03/14 01:11:10;;;;;;;4.80;3.80;;;14.30;80.40;;;;;;4948280;28;20047;-32
2024/03/14 01:13:36;;;;;;;4.95;3.90;;;14.30;80.40;;;;;;4971353;28;20035;-33
2024/03/14 01:16:04;;;;;;;4.65;3.67;;;14.30;80.40;;;;;;4974358;28;20042;-33
2024/03/14 01:18:30;;;;;;;4.72;3.63;;;14.20;80.40;;;;;;4972475;28;20031;-32
2024/03/14 01:20:56;;;;;;;4.70;3.65;;;14.30;80.40;;;;;;4945530;28;20093;-32
2024/03/14 01:23:22;;;;;;;4.68;3.65;;;14.20;80.40;;;;;;4972426;28;20086;-33
2024/03/14 01:25:48;;;;;;;5.07;4.25;;;14.20;80.30;;;;;;4953542;28;20475;-33
2024/03/14 01:28:14;;;;;;;4.63;3.75;;;14.20;80.40;;;;;;4970698;28;20121;-32
2024/03/14 01:30:42;;;;;;;6.00;4.38;;;14.20;80.40;;;;;;4971440;28;20063;-33
2024/03/14 01:33:09;;;;;;;4.88;4.03;;;14.20;80.40;;;;;;4971193;28;20034;-33
2024/03/14 01:35:35;;;;;;;5.90;3.75;;;14.20;80.40;;;;;;4944921;28;20031;-33
2024/03/14 01:38:01;;;;;;;4.63;3.75;;;14.10;80.40;;;;;;4973499;28;20031;-33
2024/03/14 01:40:26;;;;;;;4.97;4.05;;;14.10;80.40;;;;;;4973941;28;20778;-33
2024/03/14 01:42:56;;;;;;;5.00;4.03;;;14.20;80.40;;;;;;4969366;28;20646;-32
2024/03/14 01:45:22;;;;;;;5.32;4.20;;;14.20;80.40;;;;;;4972892;28;20035;-33
2024/03/14 01:47:49;;;;;;;5.25;4.13;;;14.10;80.30;;;;;;4973160;28;20042;-33
2024/03/14 01:50:15;;;;;;;5.03;4.00;;;14.10;80.40;;;;;;4975256;28;20111;-33
2024/03/14 01:52:44;;;;;;;5.50;4.57;;;14.10;80.40;;;;;;4976994;28;20423;-33
2024/03/14 01:55:13;;;;;;;5.70;4.80;;;14.10;80.40;;;;;;4971681;28;20045;-33
2024/03/14 01:57:39;;;;;;;6.28;4.85;;;14.10;80.40;;;;;;4979168;28;20033;-33
2024/03/14 02:00:05;;;;;;;5.35;4.47;;;14.00;80.30;;;;;;4974017;28;20098;-33
2024/03/14 02:02:38;;;;;;;5.50;4.53;;;14.10;80.40;;;;;;4977465;28;20115;-32
2024/03/14 02:05:10;;;;;;;5.97;4.55;;;14.00;80.30;;;;;;4975511;28;20038;-33
2024/03/14 02:07:40;;;;;;;6.18;4.75;;;14.10;80.40;;;;;;4976369;28;20080;-32
2024/03/14 02:10:07;;;;;;;5.97;4.95;;;14.00;80.30;;;;;;4974521;28;20038;-33
2024/03/14 02:12:35;;;;;;;6.15;4.90;;;14.00;80.30;;;;;;4974784;28;20510;-33
2024/03/14 02:15:02;;;;;;;6.30;4.80;;;14.00;80.30;;;;;;4974192;28;20027;-33
2024/03/14 02:17:29;;;;;;;6.60;5.07;;;14.00;80.30;;;;;;4979002;28;20032;-33
2024/03/14 02:19:56;;;;;;;7.47;4.70;;;14.00;80.30;;;;;;4979103;28;20027;-32
2024/03/14 02:22:22;;;;;;;6.05;4.78;;;14.00;80.40;;;;;;4980127;28;20507;-32
2024/03/14 02:24:51;;;;;;;6.03;5.13;;;14.00;80.40;;;;;;4982452;28;20486;-33
2024/03/14 02:27:17;;;;;;;6.65;4.97;;;14.00;80.40;;;;;;4985281;28;20046;-33
2024/03/14 02:29:43;;;;;;;5.80;4.90;;;14.00;80.40;;;;;;4980195;28;20038;-33
2024/03/14 02:32:11;;;;;;;6.35;5.45;;;14.00;80.40;;;;;;4982339;28;20035;-35
2024/03/14 02:34:37;;;;;;;5.93;4.97;;;13.90;80.30;;;;;;4971524;28;20023;-33
2024/03/14 02:37:03;;;;;;;6.45;5.45;;;13.90;80.40;;;;;;4976188;28;20431;-33
2024/03/14 02:39:29;;;;;;;6.60;5.40;;;13.90;80.40;;;;;;4970343;28;20031;-32
2024/03/14 02:42:01;;;;;;;6.93;5.57;;;13.90;80.40;;;;;;4969026;28;20051;-34
2024/03/14 02:44:27;;;;;;;6.55;5.40;;;13.90;80.40;;;;;;4976023;28;20528;-38
2024/03/14 02:46:53;;;;;;;6.20;5.22;;;13.90;80.40;;;;;;4976953;28;20038;-34
2024/03/14 02:49:23;;;;;;;6.45;5.55;;;13.90;80.40;;;;;;4968701;28;20047;-33
2024/03/14 02:51:48;;;;;;;6.75;5.68;;;13.90;80.40;;;;;;4966594;28;20019;-32
2024/03/14 02:54:15;;;;;;;6.22;5.38;;;13.80;80.30;;;;;;4973249;28;20023;-32
2024/03/14 02:56:49;;;;;;;6.38;5.05;;;13.90;80.40;;;;;;4979155;28;20047;-33
2024/03/14 02:59:22;;;;;;;6.38;5.10;;;13.80;80.40;;;;;;4973672;28;20102;-33
2024/03/14 03:01:51;;;;;;;7.03;5.32;;;13.80;80.40;;;;;;4978915;28;20033;-32
2024/03/14 03:04:17;;;;;;;6.13;5.32;;;13.80;80.40;;;;;;4961675;28;20037;-32
2024/03/14 03:06:53;;;;;;;6.40;5.38;;;13.80;80.40;;;;;;4978884;28;20035;-33
2024/03/14 03:09:22;;;;;;;6.88;5.65;;;13.80;80.40;;;;;;4975539;28;20031;-32
2024/03/14 03:11:48;;;;;;;6.30;5.28;;;13.70;80.40;;;;;;4975480;28;20031;-33
2024/03/14 03:14:14;;;;;;;6.45;5.10;;;13.70;80.40;;;;;;4947727;28;20059;-32
2024/03/14 03:16:40;;;;;;;6.60;5.53;;;13.70;80.40;;;;;;4979644;28;20110;-33
2024/03/14 03:19:06;;;;;;;7.72;6.40;;;13.70;80.40;;;;;;4975731;28;20102;-32
2024/03/14 03:21:32;;;;;;;7.07;5.85;;;13.70;80.50;;;;;;4976239;28;20147;-33
2024/03/14 03:23:57;;;;;;;6.35;5.55;;;13.70;80.40;;;;;;4973349;28;20518;-32
2024/03/14 03:26:25;;;;;;;6.93;5.63;;;13.70;80.40;;;;;;4975331;28;20027;-33
2024/03/14 03:28:51;;;;;;;6.50;5.57;;;13.70;80.40;;;;;;4972811;28;20073;-33
2024/03/14 03:31:17;;;;;;;8.43;6.22;;;13.70;80.50;;;;;;4972907;28;20069;-32
2024/03/14 03:33:43;;;;;;;7.13;6.18;;;13.70;80.40;;;;;;4969314;28;20027;-32
2024/03/14 03:36:09;;;;;;;7.68;6.15;;;13.70;80.50;;;;;;4979091;28;20037;-32
2024/03/14 03:38:39;;;;;;;5.95;5.35;;;13.60;80.40;;;;;;4958495;28;20060;-33
2024/03/14 03:41:09;;;;;;;6.72;5.57;;;13.60;80.40;;;;;;4974995;28;20031;-33
2024/03/14 03:43:35;;;;;;;6.68;5.55;;;13.60;80.50;;;;;;4968138;28;20031;-32
2024/03/14 03:46:01;;;;;;;7.82;6.38;;;13.60;80.50;;;;;;4975472;28;20073;-32
2024/03/14 03:48:27;;;;;;;6.72;5.70;;;13.60;80.40;;;;;;4971379;28;20197;-33
2024/03/14 03:50:52;;;;;;;6.90;6.20;;;13.60;80.50;;;;;;4948924;28;20038;-33
2024/03/14 03:53:19;;;;;;;7.32;5.93;;;13.50;80.50;;;;;;4975538;28;20030;-32
2024/03/14 03:55:44;;;;;;;6.70;5.80;;;13.50;80.50;;;;;;4951392;28;20050;-32
2024/03/14 03:58:11;;;;;;;6.60;5.88;;;13.50;80.50;;;;;;4971774;28;20035;-32
2024/03/14 04:00:46;;;;;;;6.53;5.70;;;13.50;80.50;;;;;;4966208;28;20053;-32
2024/03/14 04:03:12;;;;;;;7.25;5.97;;;13.50;80.50;;;;;;4975055;28;20490;-33
2024/03/14 04:05:39;;;;;;;6.90;5.85;;;13.50;80.50;;;;;;4971719;28;20099;-33
2024/03/14 04:08:05;;;;;;;6.47;5.70;;;13.50;80.50;;;;;;4969812;28;20019;-33
2024/03/14 04:10:37;;;;;;;7.05;5.90;;;13.40;80.50;;;;;;4970531;28;20429;-33
2024/03/14 04:13:04;;;;;;;7.25;6.45;;;13.40;80.50;;;;;;4971863;28;20447;-34
2024/03/14 04:15:30;;;;;;;7.85;6.32;;;13.40;80.50;;;;;;4978050;28;20091;-32
2024/03/14 04:17:57;;;;;;;7.10;6.20;;;13.40;80.50;;;;;;4959026;28;20030;-34
2024/03/14 04:20:27;;;;;;;7.55;6.60;;;13.40;80.50;;;;;;4970716;28;20954;-34
2024/03/14 04:22:56;;;;;;;7.20;6.43;;;13.40;80.50;;;;;;4975381;28;20030;-33
2024/03/14 04:25:22;;;;;;;7.65;5.95;;;13.40;80.50;;;;;;4974287;28;20034;-33
2024/03/14 04:27:51;;;;;;;7.18;5.85;;;13.30;80.50;;;;;;4972762;28;20086;-32
2024/03/14 04:30:21;;;;;;;7.50;6.28;;;13.30;80.50;;;;;;4974028;28;20098;-32
2024/03/14 04:32:50;;;;;;;7.32;6.15;;;13.40;80.60;;;;;;4969743;28;20030;-31
2024/03/14 04:35:17;;;;;;;7.18;6.15;;;13.30;81.20;;;;;;4943852;28;20783;-31
2024/03/14 04:37:49;;;;;;;7.45;6.50;;;13.30;80.50;;;;;;4970005;28;20091;-31
2024/03/14 04:40:22;;;;;;;6.90;6.03;;;13.30;80.50;;;;;;4968016;28;20129;-31
2024/03/14 04:42:55;;;;;;;7.65;6.30;;;13.30;80.50;;;;;;4971639;28;20027;-31
2024/03/14 04:45:21;;;;;;;8.23;6.72;;;13.30;80.60;;;;;;4971913;28;20061;-32
2024/03/14 04:47:48;;;;;;;7.78;6.03;;;13.20;80.50;;;;;;4973654;28;20051;-31
2024/03/14 04:50:20;;;;;;;7.38;6.43;;;13.20;80.50;;;;;;4971980;28;20051;-32
2024/03/14 04:52:47;;;;;;;7.47;6.32;;;13.20;80.50;;;;;;4969499;28;20379;-33
2024/03/14 04:55:13;;;;;;;7.50;6.32;;;13.20;80.50;;;;;;4969899;28;20035;-32
2024/03/14 04:57:40;;;;;;;7.82;6.78;;;13.20;80.50;;;;;;4958557;28;20046;-33
2024/03/14 05:02:55;;;;;;;7.13;5.97;;;13.10;80.50;;;;;;4969477;28;20054;-32
2024/03/14 05:05:21;;;;;;;7.72;6.57;;;13.10;80.50;;;;;;4975275;28;20031;-31
2024/03/14 05:07:48;;;;;;;7.22;6.25;;;13.10;80.50;;;;;;4978278;28;20124;-31
2024/03/14 05:10:15;;;;;;;7.13;6.40;;;13.10;80.50;;;;;;4979778;28;20038;-32
2024/03/14 05:12:42;;;;;;;7.50;6.20;;;13.10;80.50;;;;;;4974334;28;20027;-32
2024/03/14 05:15:08;;;;;;;9.32;6.30;;;13.10;80.60;;;;;;4974815;28;20045;-32
2024/03/14 05:17:36;;;;;;;7.00;6.20;;;13.10;80.50;;;;;;4974676;28;20069;-33
2024/03/14 05:20:02;;;;;;;7.47;6.55;;;13.10;80.50;;;;;;4969593;28;20591;-32
2024/03/14 05:22:32;;;;;;;7.53;6.30;;;13.10;80.50;;;;;;4974554;28;20042;-31
2024/03/14 05:24:58;;;;;;;7.47;6.40;;;13.00;80.50;;;;;;4977486;28;20034;-32
2024/03/14 05:27:25;;;;;;;7.55;6.57;;;13.00;80.50;;;;;;4978767;28;20670;-36
2024/03/14 05:29:51;;;;;;;8.20;6.45;;;13.00;80.50;;;;;;4976145;28;20047;-32
2024/03/14 05:32:21;;;;;;;7.82;6.20;;;13.00;80.50;;;;;;4980546;28;20026;-38
2024/03/14 05:34:50;;;;;;;8.35;6.78;;;13.00;80.50;;;;;;4980551;28;20035;-34
2024/03/14 05:37:16;;;;;;;7.20;6.18;;;13.00;80.50;;;;;;4984498;28;20450;-38
2024/03/14 05:39:42;;;;;;;7.30;6.55;;;13.00;80.50;;;;;;4971691;28;20055;-34
2024/03/14 05:42:12;;;;;;;7.63;6.28;;;12.90;80.40;;;;;;4974736;28;20528;-39
2024/03/14 05:44:41;;;;;;;8.35;6.40;;;12.90;80.40;;;;;;4967825;28;20033;-39
2024/03/14 05:47:10;;;;;;;7.38;6.45;;;13.00;80.50;;;;;;4973491;28;20043;-36
2024/03/14 05:49:36;;;;;;;7.25;6.10;;;12.90;80.50;;;;;;4967352;28;20046;-34
2024/03/14 05:52:02;;;;;;;6.93;6.10;;;12.90;80.50;;;;;;4967689;28;20050;-38
2024/03/14 05:54:29;;;;;;;6.80;6.00;;;12.90;80.50;;;;;;4973155;28;20031;-38
2024/03/14 05:56:55;;;;;;;7.38;6.15;;;12.80;80.40;;;;;;4972426;28;20027;-33
2024/03/14 05:59:21;;;;;;;7.82;6.25;;;12.80;80.40;;;;;;4980288;28;20083;-37
2024/03/14 06:01:47;;;;;;;7.47;6.10;;;12.80;80.40;;;;;;4977389;28;20062;-36
2024/03/14 06:04:14;;;;;;;7.25;5.80;;;12.80;80.40;;;;;;4967805;28;20039;-37
2024/03/14 06:06:39;;;;;;;8.05;5.95;;;12.80;80.40;;;;;;4978367;28;20074;-38
2024/03/14 06:09:05;;;;;;;6.72;5.95;;;12.80;80.40;;;;;;4978715;28;20049;-37
2024/03/14 06:11:34;;;;;;;7.65;6.25;;;12.80;80.50;;;;;;4979897;28;20126;-38
2024/03/14 06:13:59;;;;;;;7.30;6.00;;;12.70;80.40;;;;;;4982429;28;20019;-39
2024/03/14 06:16:26;;;;;;;6.60;5.63;;;12.70;80.40;;;;;;4979393;28;20426;-36
2024/03/14 06:18:53;;;;;;;6.70;5.78;;;12.80;80.50;;;;;;4975743;28;20033;-36
2024/03/14 06:21:21;;;;;;;6.88;5.50;;;12.70;80.40;;;;;;4976603;28;20058;-40
2024/03/14 06:23:49;;;;;;;6.20;5.25;;;12.70;80.40;;;;;;4981130;28;20019;-36
2024/03/14 06:26:15;;;;;;;6.70;5.97;;;12.70;80.40;;;;;;4982459;28;20078;-34
2024/03/14 06:28:41;;;;;;;6.65;5.70;;;12.70;80.40;;;;;;4977392;28;20046;-35
2024/03/14 06:31:07;;;;;;;6.13;5.50;;;12.70;80.40;;;;;;4977045;28;20071;-38
2024/03/14 06:33:33;;;;;;;6.68;5.53;;;12.70;80.40;;;;;;4972788;28;20023;-39
2024/03/14 06:35:59;;;;;;;6.75;5.80;;;12.70;80.50;;;;;;4979690;28;20431;-33
2024/03/14 06:38:25;;;;;;;5.88;5.03;;;12.70;80.50;;;;;;4992367;28;20053;-38
2024/03/14 06:40:52;;;;;;;6.38;5.43;;;12.60;80.40;;;;;;4963189;28;20110;-35
2024/03/14 06:43:22;;;;;;;6.30;5.35;;;12.60;80.40;;;;;;4969009;28;20019;-36
2024/03/14 06:45:51;;;;;;;6.50;5.75;;;12.60;80.40;;;;;;4978724;28;20041;-34
2024/03/14 06:48:17;;;;;;;6.32;5.65;;;12.60;81.10;;;;;;4979137;28;20025;-31
2024/03/14 06:50:45;;;;;;;6.50;5.45;;;12.60;80.50;;;;;;4974280;28;20042;-36
2024/03/14 06:53:11;;;;;;;6.53;5.43;;;12.60;80.50;;;;;;4966441;28;20074;-33
2024/03/14 06:55:37;;;;;;;6.07;5.30;;;12.60;80.50;;;;;;4964798;28;20500;-36
2024/03/14 06:58:03;;;;;;;6.07;5.22;;;12.60;80.50;;;;;;4983351;28;20039;-33
2024/03/14 07:00:30;;;;;;;6.55;5.40;;;12.60;80.50;;;;;;4977897;28;20112;-34
2024/03/14 07:02:56;;;;;;;6.60;5.25;;;12.60;80.50;;;;;;4976344;28;20027;-38
2024/03/14 07:05:24;;;;;;;6.15;5.13;;;12.50;80.50;;;;;;4977724;28;20050;-35
2024/03/14 07:07:49;;;;;;;6.88;5.00;;;12.50;80.50;;;;;;4982755;28;20393;-36
2024/03/14 07:10:19;;;;;;;5.97;5.07;;;12.50;80.50;;;;;;4967301;28;20031;-33
2024/03/14 07:12:45;;;;;;;5.63;4.70;;;12.50;80.50;;;;;;4966859;28;20031;-37
2024/03/14 07:15:12;;;;;;;6.90;5.38;;;12.50;80.50;;;;;;4974847;28;20068;-37
2024/03/14 07:17:38;;;;;;;6.07;4.78;;;12.50;80.50;;;;;;4970534;28;20082;-36
2024/03/14 07:20:17;;;;;;;5.72;4.65;;;12.50;80.50;;;;;;4974321;28;20033;-37
2024/03/14 07:22:43;;;;;;;6.55;5.03;;;12.50;80.60;;;;;;4973303;28;20038;-37
2024/03/14 07:25:12;;;;;;;5.53;4.43;;;12.50;80.60;;;;;;4957298;28;20062;-34
2024/03/14 07:27:38;;;;;;;6.20;4.97;;;12.50;80.60;;;;;;4981667;28;20039;-37
2024/03/14 07:30:07;;;;;;;5.95;4.95;;;12.50;80.50;;;;;;4979640;28;20042;-36
2024/03/14 07:32:35;;;;;;;6.28;5.22;;;12.50;80.50;;;;;;4980187;28;20802;-37
2024/03/14 07:35:02;;;;;;;6.10;5.00;;;12.50;80.60;;;;;;4954769;28;20023;-36
2024/03/14 07:37:28;;;;;;;5.80;4.53;;;12.50;80.50;;;;;;4967969;28;20022;-35
2024/03/14 07:39:54;;;;;;;5.85;4.68;;;12.50;80.50;;;;;;4980334;28;20035;-38
2024/03/14 07:42:20;;;;;;;5.70;4.57;;;12.50;80.50;;;;;;4971785;28;20024;-37
2024/03/14 07:44:47;;;;;;;5.70;4.50;;;12.50;80.50;;;;;;4979988;28;20034;-33
2024/03/14 07:47:19;;;;;;;5.68;4.72;;;12.50;80.40;;;;;;4987669;28;20050;-33
2024/03/14 07:49:48;;;;;;;5.97;4.65;;;12.50;80.40;;;;;;4961412;28;20074;-36
2024/03/14 07:52:15;;;;;;;5.75;4.65;;;12.50;80.40;;;;;;4973681;28;20346;-32
2024/03/14 07:54:44;;;;;;;5.53;4.50;;;12.50;80.40;;;;;;4972907;28;20027;-37
2024/03/14 07:57:15;;;;;;;5.47;4.60;;;12.50;80.40;;;;;;4975039;28;20390;-35
2024/03/14 07:59:44;;;;;;;5.78;4.30;;;12.50;80.40;;;;;;4960237;28;20027;-35
2024/03/14 08:02:11;;;;;;;5.63;4.40;;;12.50;80.40;;;;;;4968975;28;20034;-40
2024/03/14 08:04:47;;;;;;;5.65;4.70;;;12.50;81.00;;;;;;4967240;28;20023;-41
2024/03/14 08:07:17;;;;;;;6.63;5.03;;;12.50;80.30;;;;;;4981652;28;20022;-42
2024/03/14 08:09:47;;;;;;;5.97;5.03;;;12.50;80.30;;;;;;4975140;28;20412;-42
2024/03/14 08:12:13;;;;;;;5.75;4.80;;;12.50;80.40;;;;;;4978947;28;20031;-41
2024/03/14 08:14:43;;;;;;;5.32;4.50;;;12.60;80.40;;;;;;4979018;28;20033;-40
2024/03/14 08:17:17;;;;;;;6.40;4.72;;;12.50;80.40;;;;;;4980743;28;20034;-39
2024/03/14 08:19:49;;;;;;;5.78;4.65;;;12.60;80.40;;;;;;4972607;28;20024;-37
2024/03/14 08:22:15;;;;;;;6.05;4.82;;;12.60;80.40;;;;;;4972743;28;20050;-41
2024/03/14 08:24:47;;;;;;;5.45;4.60;;;12.60;80.40;;;;;;4959023;28;20043;-41
2024/03/14 08:27:13;;;;;;;5.30;4.30;;;12.60;80.40;;;;;;4975964;28;20022;-41
2024/03/14 08:29:40;;;;;;;6.32;4.38;;;12.60;80.40;;;;;;4967505;28;21822;-41
2024/03/14 08:32:06;;;;;;;6.22;4.50;;;12.60;80.40;;;;;;4965199;28;20040;-41
2024/03/14 08:34:34;;;;;;;5.95;4.72;;;12.60;80.40;;;;;;4976801;28;20035;-40
2024/03/14 08:37:00;;;;;;;6.57;4.70;;;12.60;80.40;;;;;;4978020;28;20046;-41
2024/03/14 08:39:29;;;;;;;5.90;5.00;;;12.60;80.40;;;;;;4972275;28;20110;-41
2024/03/14 08:41:57;;;;;;;5.47;4.57;;;12.70;80.40;;;;;;4955797;28;20035;-40
2024/03/14 08:44:28;;;;;;;6.45;4.70;;;12.60;80.30;;;;;;4953576;28;20027;-41
2024/03/14 08:46:55;;;;;;;6.95;4.80;;;12.70;80.40;;;;;;4970799;28;20034;-41
2024/03/14 08:49:21;;;;;;;6.97;4.75;;;12.70;80.40;;;;;;4980617;28;20058;-42
2024/03/14 08:51:51;;;;;;;5.75;4.88;;;12.70;80.40;;;;;;4966289;28;20022;-40
2024/03/14 08:56:49;;;;;;;6.47;4.72;;;12.70;80.40;;;;;;4974230;28;20026;-42
2024/03/14 08:59:15;;;;;;;5.63;4.88;;;12.70;80.40;;;;;;4982921;28;20034;-39
2024/03/14 09:01:47;;;;;;;5.93;4.53;;;12.70;80.40;;;;;;4981240;28;20112;-41
2024/03/14 09:04:14;;;;;;;6.20;4.80;;;12.70;80.40;;;;;;4974862;28;20454;-41
2024/03/14 09:06:42;;;;;;;5.45;4.47;;;12.80;80.40;;;;;;4982800;28;20053;-42
2024/03/14 09:09:23;;;;;;;5.70;4.65;;;12.80;80.40;;;;;;4961955;28;20088;-41
2024/03/14 09:11:53;;;;;;;5.78;4.68;;;12.80;80.40;;;;;;4969793;28;20048;-41
2024/03/14 09:14:19;;;;;;;5.55;4.53;;;12.80;80.40;;;;;;4975851;28;20031;-41
2024/03/14 09:16:45;;;;;;;5.57;4.88;;;12.90;80.40;;;;;;4964294;28;20102;-34
2024/03/14 09:19:14;;;;;;;5.60;4.60;;;12.90;81.00;;;;;;4969804;28;20574;-37
2024/03/14 09:21:40;;;;;;;5.82;4.47;;;12.90;80.30;;;;;;4954864;28;20447;-38
2024/03/14 09:24:07;;;;;;;6.25;5.25;;;13.00;80.40;;;;;;4982504;28;20030;-37
2024/03/14 09:26:36;;;;;;;6.00;4.63;;;13.00;80.40;;;;;;4980234;28;20046;-35
2024/03/14 09:29:02;;;;;;;5.93;4.82;;;13.00;80.60;;;;;;4979193;28;20026;-36
2024/03/14 09:31:28;;;;;;;6.72;4.40;;;13.10;80.50;;;;;;4980321;28;20033;-36
2024/03/14 09:33:54;;;;;;;5.70;4.53;;;13.10;80.40;;;;;;4980808;28;20495;-34
2024/03/14 09:36:20;;;;;;;5.93;4.70;;;13.20;80.40;;;;;;4983162;28;20030;-37
2024/03/14 09:38:46;;;;;;;6.05;4.70;;;13.20;80.40;;;;;;4988071;28;20031;-34
2024/03/14 09:41:16;;;;;;;6.05;5.05;;;13.20;80.50;;;;;;4974790;28;20538;-35
2024/03/14 09:43:44;;;;;;;5.32;4.40;;;13.30;80.60;;;;;;4982650;28;20031;-38
2024/03/14 09:46:15;;;;;;;6.13;4.90;;;13.30;80.50;;;;;;4968388;28;20058;-36
2024/03/14 09:48:41;;;;;;;5.47;4.07;;;13.40;80.50;;;;;;4990918;28;20022;-38
2024/03/14 09:51:09;;;;;;;5.43;4.25;;;13.40;80.50;;;;;;4957942;28;20054;-39
2024/03/14 09:53:37;;;;;;;5.82;4.63;;;13.50;80.60;;;;;;4983693;28;20106;-38
2024/03/14 09:56:04;;;;;;;5.80;4.47;;;13.50;80.50;;;;;;4974060;28;20027;-33
2024/03/14 09:58:29;;;;;;;5.28;4.25;;;13.50;80.50;;;;;;4982878;28;20030;-37
2024/03/14 10:00:55;;;;;;;5.72;4.65;;;13.60;81.20;;;;;;4982758;28;20027;-38
2024/03/14 10:03:22;;;;;;;5.68;4.20;;;13.60;80.50;;;;;;4976538;28;20558;-38
2024/03/14 10:05:52;;;;;;;5.53;4.40;;;13.70;80.50;;;;;;4980132;28;20026;-37
2024/03/14 10:08:21;;;;;;;5.32;3.97;;;13.70;80.50;;;;;;4977333;28;20083;-39
2024/03/14 10:10:46;;;;;;;5.32;4.40;;;13.80;80.60;;;;;;4964211;28;20480;-38
2024/03/14 10:13:23;;;;;;;5.25;4.22;;;13.80;80.50;;;;;;4976374;28;20046;-37
2024/03/14 10:15:49;;;;;;;5.20;3.85;;;13.90;80.50;;;;;;4974708;28;20015;-38
2024/03/14 10:18:18;;;;;;;4.60;3.80;;;13.90;80.50;;;;;;4978108;28;20027;-32
2024/03/14 10:20:43;;;;;;;5.07;4.07;;;14.00;81.20;;;;;;4978532;28;20050;-36
2024/03/14 10:23:09;;;;;;;5.05;3.90;;;14.00;80.50;;;;;;4968341;28;20078;-35
2024/03/14 10:25:38;;;;;;;4.30;3.45;;;14.10;80.50;;;;;;4963323;28;20034;-34
2024/03/14 10:28:17;;;;;;;4.80;3.97;;;14.20;80.50;;;;;;4982717;28;20018;-36
2024/03/14 10:30:57;;;;;;;4.60;3.75;;;14.20;80.50;;;;;;4973747;28;20506;-37
2024/03/14 10:33:26;;;;;;;4.65;3.85;;;14.30;80.50;;;;;;4980308;28;20065;-35
2024/03/14 10:35:58;;;;;;;5.00;3.92;;;14.30;80.40;;;;;;4962555;28;20023;-37
2024/03/14 10:38:28;;;;;;;5.07;4.10;;;14.40;80.50;;;;;;4980775;28;20039;-35
2024/03/14 10:40:58;;;;;;;5.07;3.80;;;14.40;80.40;;;;;;4982258;28;20035;-38
2024/03/14 10:43:37;;;;;;;4.53;3.58;;;14.50;80.40;;;;;;4982145;28;20019;-35
2024/03/14 10:46:08;;;;;;;5.47;4.00;;;14.60;80.40;;;;;;4968153;28;20043;-37
2024/03/14 10:48:38;;;;;;;4.63;3.97;;;14.60;80.40;;;;;;4986392;28;20019;-33
2024/03/14 10:51:06;;;;;;;5.15;3.95;;;14.70;80.40;;;;;;4974952;28;20058;-34
2024/03/14 10:53:34;;;;;;;4.38;3.65;;;14.80;80.40;;;;;;4978187;28;20550;-38
2024/03/14 10:56:02;;;;;;;5.35;3.97;;;14.80;80.30;;;;;;4983194;28;20034;-40
2024/03/14 10:58:31;;;;;;;5.00;3.90;;;14.90;80.30;;;;;;4993039;28;20058;-40
2024/03/14 11:00:59;;;;;;;4.90;3.75;;;14.90;80.20;;;;;;4979611;28;20054;-39
2024/03/14 11:03:27;;;;;;;4.88;3.83;;;15.00;80.20;;;;;;4974120;28;20074;-36
2024/03/14 11:05:56;;;;;;;4.72;3.72;;;15.10;80.30;;;;;;4961248;28;20046;-34
2024/03/14 11:08:26;;;;;;;4.32;3.53;;;15.20;80.30;;;;;;4967359;28;20081;-35
2024/03/14 11:10:56;;;;;;;4.85;3.72;;;15.20;80.20;;;;;;4981981;28;20049;-37
2024/03/14 11:13:32;;;;;;;4.38;3.58;;;15.30;80.20;;;;;;4960452;28;20059;-37
2024/03/14 11:15:59;;;;;;;4.35;3.72;;;15.40;80.20;;;;;;4983225;28;20038;-39
2024/03/14 11:18:37;;;;;;;4.80;3.83;;;15.40;80.20;;;;;;4973744;28;20023;-37
2024/03/14 11:21:06;;;;;;;4.47;3.78;;;15.50;80.30;;;;;;4960339;28;20045;-39
2024/03/14 11:23:34;;;;;;;4.90;3.78;;;15.60;80.20;;;;;;4970328;28;20082;-32
2024/03/14 11:26:05;;;;;;;5.20;3.80;;;15.60;80.20;;;;;;4980051;28;20025;-37
2024/03/14 11:28:36;;;;;;;4.50;3.55;;;15.70;80.30;;;;;;4960338;28;20103;-36
2024/03/14 11:31:02;;;;;;;5.25;3.70;;;15.80;80.30;;;;;;4981112;28;20054;-37
2024/03/14 11:33:28;;;;;;;4.93;3.50;;;15.80;80.30;;;;;;4979953;28;20242;-38
2024/03/14 11:35:58;;;;;;;4.53;3.80;;;15.90;80.40;;;;;;4978183;28;20614;-37
2024/03/14 11:38:28;;;;;;;4.47;3.70;;;16.00;80.40;;;;;;4983450;28;20042;-36
2024/03/14 11:40:58;;;;;;;4.57;3.60;;;16.00;80.40;;;;;;4981603;28;20045;-38
2024/03/14 11:43:26;;;;;;;4.57;3.55;;;16.10;80.50;;;;;;4964908;28;20027;-37
2024/03/14 11:45:59;;;;;;;3.80;3.30;;;16.20;80.50;;;;;;4972871;28;20518;-36
2024/03/14 11:48:28;;;;;;;4.43;3.30;;;16.20;80.50;;;;;;4985029;28;20041;-37
2024/03/14 11:50:55;;;;;;;3.90;3.40;;;16.30;80.50;;;;;;4982390;28;20137;-37
2024/03/14 11:53:22;;;;;;;6.72;3.65;;;16.30;80.50;;;;;;4979164;28;20086;-33
2024/03/14 11:55:48;;;;;;;4.85;3.88;;;16.40;80.60;;;;;;4970652;28;20364;-35
2024/03/14 11:58:18;;;;;;;3.70;3.28;;;16.50;80.70;;;;;;4990382;28;20037;-34
2024/03/14 12:00:47;;;;;;;4.40;3.38;;;16.50;80.70;;;;;;4970898;28;20559;-38
2024/03/14 12:03:13;;;;;;;5.38;3.35;;;16.60;80.70;;;;;;4969263;28;20031;-34
2024/03/14 12:05:44;;;;;;;4.10;3.25;;;16.60;80.70;;;;;;4971853;28;20433;-38
2024/03/14 12:08:15;;;;;;;4.72;3.50;;;16.70;80.70;;;;;;4985886;28;20031;-38
2024/03/14 12:10:50;;;;;;;3.78;2.80;;;16.80;80.80;;;;;;4972678;28;20036;-36
2024/03/14 12:13:19;;;;;;;4.53;3.40;;;16.80;80.80;;;;;;4974398;28;20463;-35
2024/03/14 12:15:45;;;;;;;4.15;3.28;;;16.80;80.80;;;;;;4975884;28;20085;-36
2024/03/14 12:18:11;;;;;;;4.20;3.22;;;16.90;80.80;;;;;;4972407;28;20027;-39
2024/03/14 12:20:46;;;;;;;4.50;3.28;;;16.90;80.80;;;;;;4975881;28;20480;-37
2024/03/14 12:23:11;;;;;;;4.07;3.10;;;17.00;80.80;;;;;;4961573;28;20031;-34
2024/03/14 12:25:38;;;;;;;3.97;3.28;;;17.10;80.80;;;;;;4958991;28;20526;-39
2024/03/14 12:28:10;;;;;;;3.67;3.05;;;17.10;80.80;;;;;;4981208;28;20077;-37
2024/03/14 12:30:42;;;;;;;3.63;3.10;;;17.20;80.90;;;;;;4970449;28;20063;-35
2024/03/14 12:33:11;;;;;;;3.75;2.95;;;17.20;80.90;;;;;;4978857;28;20105;-39
2024/03/14 12:35:40;;;;;;;4.45;3.45;;;17.30;80.90;;;;;;4979224;28;20027;-35
2024/03/14 12:38:10;;;;;;;4.70;3.08;;;17.30;80.80;;;;;;4984453;28;20170;-38
2024/03/14 12:40:37;;;;;;;3.55;3.10;;;17.40;80.80;;;;;;4974515;28;20046;-38
2024/03/14 12:43:03;;;;;;;4.93;3.90;;;17.50;80.80;;;;;;4966767;28;20033;-39
2024/03/14 12:45:31;;;;;;;4.10;3.05;;;17.50;80.70;;;;;;4961664;28;20066;-37
2024/03/14 12:48:00;;;;;;;4.15;3.28;;;17.60;80.70;;;;;;4979823;28;20045;-37
2024/03/14 12:50:28;;;;;;;3.75;3.08;;;17.60;80.70;;;;;;4966507;28;20481;-37
2024/03/14 12:53:07;;;;;;;3.85;3.00;;;17.70;80.70;;;;;;4982277;28;20022;-36
2024/03/14 12:55:33;;;;;;;4.72;3.05;;;17.80;80.80;;;;;;4981101;28;20110;-34